ADDS METAR Data INFO
IDs: Format: Raw Decoded Include TAF

Data at: 0125 UTC 20 Feb 2018

K2J9 200115Z AUTO 00000KT 10SM SCT041 SCT049 19/15 A3028 RMK AO2
K2J9 200055Z AUTO 00000KT 10SM SCT042 BKN048 19/15 A3027 RMK AO2
K2J9 200035Z AUTO 00000KT 10SM SCT044 20/15 A3027 RMK AO2
K2J9 200015Z AUTO 19004KT 10SM BKN039 BKN045 21/15 A3027 RMK AO2
K2J9 192355Z AUTO 17004KT 10SM BKN040 22/15 A3027 RMK AO2
K2J9 192335Z AUTO 16004KT 10SM CLR 23/15 A3027 RMK AO2
K2J9 192315Z AUTO 19006KT 10SM CLR 24/15 A3026 RMK AO2
K2J9 192255Z AUTO 18005KT 10SM CLR 25/15 A3026 RMK AO2
K2J9 192235Z AUTO 17008G13KT 10SM CLR 25/15 A3025 RMK AO2
K2J9 192215Z AUTO 18010KT 10SM CLR 26/15 A3025 RMK AO2
K2J9 192155Z AUTO 19011KT 10SM CLR 27/16 A3025 RMK AO2
K2J9 192135Z AUTO 17009G14KT 10SM CLR 27/15 A3024 RMK AO2
K2J9 192115Z AUTO 19009G14KT 10SM CLR 27/16 A3024 RMK AO2
K2J9 192055Z AUTO 18012KT 10SM SCT048 SCT065 27/15 A3024 RMK AO2
K2J9 192035Z AUTO 19006G14KT 10SM SCT047 SCT055 BKN065 27/16 A3025 RMK AO2
K2J9 192015Z AUTO 20009KT 10SM FEW046 SCT060 SCT065 27/16 A3025 RMK AO2
K2J9 191955Z AUTO 18007G13KT 150V230 10SM FEW047 SCT060 SCT070 26/15 A3025 RMK AO2
K2J9 191935Z AUTO 18009G15KT 10SM FEW040 BKN060 BKN070 26/15 A3026 RMK AO2
K2J9 191915Z AUTO 19009KT 10SM FEW040 FEW049 BKN060 27/16 A3027 RMK AO2
K2J9 191855Z AUTO 18008G16KT 150V210 10SM SCT039 SCT049 SCT065 28/17 A3027 RMK AO2
K2J9 191835Z AUTO VRB06KT 110V170 10SM FEW037 SCT043 SCT049 27/18 A3029 RMK AO2
K2J9 191815Z AUTO 18008G15KT 10SM FEW028 FEW032 SCT065 26/17 A3030 RMK AO2
K2J9 191755Z AUTO 16010G17KT 10SM FEW028 SCT034 BKN065 25/18 A3031 RMK AO2
K2J9 191735Z AUTO 16011KT 10SM SCT028 SCT034 BKN070 26/18 A3032 RMK AO2
K2J9 191715Z AUTO 20007G14KT 150V210 10SM SCT025 SCT030 OVC070 25/18 A3033 RMK AO2
K2J9 191655Z AUTO VRB06G14KT 10SM FEW024 FEW029 BKN070 24/18 A3034 RMK AO2
K2J9 191635Z AUTO 17009G17KT 120V210 10SM FEW020 SCT025 BKN070 25/18 A3035 RMK AO2
K2J9 191615Z AUTO 15010G15KT 10SM FEW016 SCT025 BKN070 23/18 A3035 RMK AO2
K2J9 191555Z AUTO 15005G11KT 10SM BKN015 BKN070 23/19 A3035 RMK AO2
K2J9 191535Z AUTO 13008KT 10SM BKN013 OVC065 22/19 A3035 RMK AO2
K2J9 191515Z AUTO 13006KT 10SM BKN012 OVC065 22/19 A3035 RMK AO2
K2J9 191455Z AUTO 14006KT 10SM BKN009 BKN013 OVC065 21/19 A3034 RMK AO2
K2J9 191435Z AUTO 12008KT 10SM BKN008 OVC011 20/18 A3034 RMK AO2
K2J9 191415Z AUTO 13005KT 10SM BKN006 OVC011 19/18 A3033 RMK AO2
K2J9 191355Z AUTO 12004KT 9SM OVC005 19/18 A3033 RMK AO2
K2J9 191335Z AUTO 00000KT 8SM OVC005 19/18 A3032 RMK AO2
K2J9 191315Z AUTO 12005KT 6SM BR OVC004 18/18 A3032 RMK AO2
K2J9 191255Z AUTO 10004KT 6SM BR OVC004 18/18 A3031 RMK AO2
K2J9 191235Z AUTO 00000KT 9SM OVC005 18/18 A3030 RMK AO2
K2J9 191215Z AUTO 09004KT 10SM OVC006 18/18 A3030 RMK AO2
K2J9 191155Z AUTO 10003KT 10SM OVC006 18/18 A3029 RMK AO2
K2J9 191135Z AUTO 12004KT 10SM OVC008 18/18 A3028 RMK AO2
K2J9 191115Z AUTO 00000KT 10SM OVC011 18/18 A3027 RMK AO2
K2J9 191055Z AUTO 10004KT 9SM OVC013 18/18 A3027 RMK AO2
K2J9 191035Z AUTO 09004KT 5SM BR BKN003 OVC015 18/18 A3026 RMK AO2
K2J9 191015Z AUTO 11005KT 3/4SM BR OVC003 18/18 A3026 RMK AO2
K2J9 190955Z AUTO VRB04KT 1SM BR OVC002 18/18 A3025 RMK AO2
K2J9 190935Z AUTO VRB03KT 1/2SM FG OVC002 18/18 A3025 RMK AO2
K2J9 190915Z AUTO 15004KT 1/4SM FG OVC002 18/18 A3025 RMK AO2
K2J9 190855Z AUTO VRB04KT 1/4SM FG OVC002 18/18 A3025 RMK AO2
K2J9 190835Z AUTO 14003KT 1 3/4SM BR OVC003 18/18 A3025 RMK AO2
K2J9 190815Z AUTO 13004KT 4SM BR OVC003 17/17 A3025 RMK AO2
K2J9 190755Z AUTO 13003KT 5SM BR BKN004 OVC011 17/17 A3024 RMK AO2
K2J9 190735Z AUTO 00000KT 4SM BR SCT003 SCT011 BKN055 17/17 A3024 RMK AO2
K2J9 190715Z AUTO 12005KT 4SM BR SCT002 BKN007 BKN016 17/17 A3025 RMK AO2
K2J9 190655Z AUTO 09003KT 7SM SCT003 16/15 A3024 RMK AO2
K2J9 190635Z AUTO 00000KT 9SM FEW003 16/16 A3024 RMK AO2
K2J9 190615Z AUTO 00000KT 9SM CLR 16/16 A3024 RMK AO2
K2J9 190555Z AUTO 00000KT 9SM CLR 16/16 A3024 RMK AO2
K2J9 190535Z AUTO 00000KT 9SM CLR 17/16 A3025 RMK AO2
K2J9 190515Z AUTO 00000KT 9SM BKN080 17/16 A3025 RMK AO2
K2J9 190455Z AUTO 00000KT 10SM OVC075 17/17 A3025 RMK AO2
K2J9 190435Z AUTO 16004KT 9SM OVC070 17/17 A3025 RMK AO2
K2J9 190415Z AUTO 00000KT 10SM OVC070 18/17 A3025 RMK AO2
K2J9 190355Z AUTO 00000KT 10SM OVC075 18/17 A3025 RMK AO2
K2J9 190335Z AUTO 00000KT 10SM OVC070 18/17 A3025 RMK AO2
K2J9 190315Z AUTO 00000KT 10SM BKN070 OVC080 19/18 A3025 RMK AO2
K2J9 190255Z AUTO 00000KT 10SM OVC080 20/18 A3025 RMK AO2
K2J9 190235Z AUTO 00000KT 10SM OVC075 20/18 A3025 RMK AO2
K2J9 190215Z AUTO 17003KT 10SM OVC080 21/18 A3025 RMK AO2
K2J9 190155Z AUTO 00000KT 10SM OVC075 21/18 A3024 RMK AO2
K2J9 190135Z AUTO 17003KT 10SM SCT018 OVC075 21/18 A3024 RMK AO2
K2J9 190115Z AUTO 17004KT 10SM OVC016 21/18 A3023 RMK AO2
K2J9 190055Z AUTO 19004KT 10SM OVC015 22/18 A3023 RMK AO2
K2J9 190035Z AUTO 20006KT 10SM BKN014 OVC070 22/18 A3022 RMK AO2
K2J9 190015Z AUTO 19004KT 10SM FEW015 OVC070 22/19 A3022 RMK AO2
K2J9 182355Z AUTO 16003KT 10SM SCT070 SCT080 BKN090 23/19 A3021 RMK AO2
K2J9 182335Z AUTO 18005KT 10SM CLR 24/19 A3021 RMK AO2
K2J9 182315Z AUTO 16007KT 10SM FEW080 24/19 A3021 RMK AO2
K2J9 182255Z AUTO 16008KT 10SM SCT080 25/17 A3020 RMK AO2
K2J9 182235Z AUTO 17003KT 10SM FEW080 27/17 A3020 RMK AO2
K2J9 182215Z AUTO 20004KT 10SM BKN080 26/17 A3019 RMK AO2
K2J9 182155Z AUTO 00000KT 10SM SCT080 26/16 A3019 RMK AO2
K2J9 182135Z AUTO 00000KT 10SM CLR 27/16 A3018 RMK AO2
K2J9 182115Z AUTO 27005KT 10SM CLR 27/16 A3018 RMK AO2
K2J9 182055Z AUTO VRB04KT 10SM CLR 27/16 A3019 RMK AO2
K2J9 182035Z AUTO 00000KT 10SM CLR 27/16 A3018 RMK AO2
K2J9 182015Z AUTO 00000KT 10SM FEW049 26/16 A3019 RMK AO2
K2J9 181955Z AUTO VRB03G10KT 10SM SCT047 27/16 A3019 RMK AO2
K2J9 181935Z AUTO VRB04KT 10SM SCT045 SCT050 26/16 A3020 RMK AO2
K2J9 181915Z AUTO 17007KT 10SM BKN044 BKN050 28/17 A3020 RMK AO2
K2J9 181855Z AUTO 00000KT 10SM FEW044 26/16 A3021 RMK AO2
K2J9 181835Z AUTO VRB04KT 10SM FEW038 27/17 A3022 RMK AO2
K2J9 181815Z AUTO 00000KT 10SM FEW038 26/17 A3023 RMK AO2
K2J9 181755Z AUTO 21004KT 10SM FEW030 25/17 A3024 RMK AO2
K2J9 181735Z AUTO 17004KT 10SM BKN029 26/18 A3024 RMK AO2
K2J9 181715Z AUTO 00000KT 10SM SCT025 SCT030 24/18 A3025 RMK AO2
K2J9 181655Z AUTO VRB04KT 10SM SCT026 24/18 A3026 RMK AO2
K2J9 181635Z AUTO VRB05KT 10SM FEW014 23/19 A3026 RMK AO2
K2J9 181615Z AUTO 25003KT 10SM BKN008 22/19 A3026 RMK AO2
K2J9 181555Z AUTO 00000KT 10SM OVC007 20/20 A3027 RMK AO2
K2J9 181535Z AUTO 00000KT 10SM OVC004 20/20 A3026 RMK AO2
K2J9 181515Z AUTO 00000KT 1SM BR OVC003 19/19 A3026 RMK AO2
K2J9 181455Z AUTO 00000KT 1/4SM FG OVC003 19/19 A3026 RMK AO2
K2J9 181435Z AUTO 00000KT M1/4SM FG OVC003 18/18 A3025 RMK AO2
K2J9 181415Z AUTO 00000KT M1/4SM FG OVC002 18/18 A3025 RMK AO2
K2J9 181355Z AUTO 00000KT M1/4SM FG OVC002 18/18 A3024 RMK AO2
K2J9 181335Z AUTO 00000KT M1/4SM FG OVC002 18/18 A3023 RMK AO2